createdAt,value
2022-10-01T00:01:17.306Z,95814.03
2022-10-01T00:03:45.504Z,95822.59
2022-10-01T00:06:17.964Z,95819.16
2022-10-01T00:08:48.952Z,95829.75
2022-10-01T00:11:25.051Z,95823.50
2022-10-01T00:13:53.634Z,95831.13
2022-10-01T00:16:23.763Z,95830.44
2022-10-01T00:18:53.862Z,95831.91
2022-10-01T00:21:24.647Z,95816.53
2022-10-01T00:23:57.490Z,95812.09
2022-10-01T00:26:28.511Z,95809.13
2022-10-01T00:29:05.314Z,95799.56
2022-10-01T00:31:33.098Z,95804.00
2022-10-01T00:34:03.504Z,95798.34
2022-10-01T00:36:31.990Z,95804.00
2022-10-01T00:39:00.907Z,95803.28
2022-10-01T00:41:33.812Z,95801.78
2022-10-01T00:44:22.835Z,95806.44
2022-10-01T00:46:50.349Z,95806.19
2022-10-01T00:49:29.378Z,95807.84
2022-10-01T00:52:04.834Z,95792.88
2022-10-01T00:54:47.675Z,95786.94
2022-10-01T00:57:18.601Z,95795.78
2022-10-01T00:59:46.957Z,95792.41
2022-10-01T01:02:14.070Z,95779.88
2022-10-01T01:04:41.796Z,95789.19
2022-10-01T01:07:09.848Z,95790.19
2022-10-01T01:09:44.107Z,95779.88
2022-10-01T01:12:29.592Z,95778.94
2022-10-01T01:15:18.623Z,95777.50
2022-10-01T01:17:57.812Z,95769.88
2022-10-01T01:21:02.946Z,95767.47
2022-10-01T01:23:42.394Z,95766.06
2022-10-01T01:26:48.498Z,95768.28
2022-10-01T01:29:33.833Z,95751.56
2022-10-01T01:32:11.489Z,95747.16
2022-10-01T01:34:45.685Z,95745.50
2022-10-01T01:37:17.746Z,95743.53
2022-10-01T01:39:49.089Z,95754.59
2022-10-01T01:42:37.415Z,95747.97
2022-10-01T01:45:09.950Z,95748.44
2022-10-01T01:47:40.057Z,95748.44
2022-10-01T01:50:11.046Z,95740.09
2022-10-01T01:52:38.605Z,95739.09
2022-10-01T01:55:07.576Z,95732.06
2022-10-01T01:57:40.063Z,95731.34
2022-10-01T02:00:12.610Z,95730.38
2022-10-01T02:02:44.277Z,95718.16
2022-10-01T02:05:16.963Z,95718.16
2022-10-01T02:08:08.452Z,95709.88
2022-10-01T02:10:41.394Z,95717.75
2022-10-01T02:13:35.438Z,95717.00
2022-10-01T02:16:19.237Z,95712.63
2022-10-01T02:19:20.197Z,95707.53
2022-10-01T02:21:59.237Z,95706.78
2022-10-01T02:25:04.408Z,95707.31
2022-10-01T02:27:41.537Z,95704.63
2022-10-01T02:30:10.863Z,95704.41
2022-10-01T02:32:45.258Z,95702.72
2022-10-01T02:35:16.873Z,95695.16
2022-10-01T02:37:47.085Z,95692.97
2022-10-01T02:40:18.374Z,95693.97
2022-10-01T02:42:56.170Z,95691.78
2022-10-01T02:45:24.986Z,95673.91
2022-10-01T02:47:59.200Z,95679.84
2022-10-01T02:50:51.880Z,95684.28
2022-10-01T02:53:53.019Z,95675.00
2022-10-01T02:56:48.387Z,95669.84
2022-10-01T02:59:16.282Z,95664.22
2022-10-01T03:01:43.428Z,95659.84
2022-10-01T03:04:10.496Z,95666.72
2022-10-01T03:06:37.800Z,95659.88
2022-10-01T03:09:04.996Z,95658.66
2022-10-01T03:11:32.168Z,95665.00
2022-10-01T03:13:59.406Z,95662.78
2022-10-01T03:16:26.883Z,95670.94
2022-10-01T03:18:54.087Z,95670.22
2022-10-01T03:21:21.131Z,95672.91
2022-10-01T03:23:48.254Z,95668.72
2022-10-01T03:26:15.187Z,95670.94
2022-10-01T03:28:43.201Z,95663.56
2022-10-01T03:31:11.422Z,95654.00
2022-10-01T03:33:38.653Z,95658.66
2022-10-01T03:36:05.832Z,95657.66
2022-10-01T03:38:32.956Z,95638.75
2022-10-01T03:40:59.973Z,95644.16
2022-10-01T03:43:29.240Z,95638.47
2022-10-01T03:45:56.966Z,95637.03
2022-10-01T03:48:24.669Z,95646.34
2022-10-01T03:50:59.887Z,95640.69
2022-10-01T03:53:27.889Z,95635.78
2022-10-01T03:55:55.454Z,95643.13
2022-10-01T03:58:23.519Z,95646.56
2022-10-01T04:00:51.218Z,95643.63
2022-10-01T04:03:18.725Z,95652.69
2022-10-01T04:05:45.883Z,95653.94
2022-10-01T04:08:14.081Z,95646.81
2022-10-01T04:10:41.448Z,95647.28
2022-10-01T04:13:09.208Z,95625.22
2022-10-01T04:15:36.866Z,95632.56
2022-10-01T04:18:06.367Z,95632.34
2022-10-01T04:20:34.660Z,95624.97
2022-10-01T04:23:02.236Z,95629.13
2022-10-01T04:25:29.660Z,95621.53
2022-10-01T04:28:02.095Z,95627.69
2022-10-01T04:30:32.903Z,95636.50
2022-10-01T04:33:00.727Z,95615.16
2022-10-01T04:35:30.425Z,95611.72
2022-10-01T04:38:07.792Z,95609.00
2022-10-01T04:40:38.245Z,95636.75
2022-10-01T04:43:08.576Z,95608.78
2022-10-01T04:45:36.928Z,95619.59
2022-10-01T04:48:05.318Z,95621.06
2022-10-01T04:50:33.005Z,95619.59
2022-10-01T04:53:00.420Z,95615.66
2022-10-01T04:55:28.282Z,95615.19
2022-10-01T04:57:55.422Z,95611.28
2022-10-01T05:00:27.016Z,95601.97
2022-10-01T05:02:54.311Z,95596.56
2022-10-01T05:05:23.791Z,95592.63
2022-10-01T05:07:51.268Z,95596.78
2022-10-01T05:10:21.892Z,95597.53
2022-10-01T05:12:50.017Z,95602.47
2022-10-01T05:15:17.561Z,95602.47
2022-10-01T05:17:45.132Z,95603.22
2022-10-01T05:20:17.864Z,95604.44
2022-10-01T05:22:47.122Z,95612.78
2022-10-01T05:25:14.197Z,95608.59
2022-10-01T05:27:41.409Z,95596.31
2022-10-01T05:30:11.810Z,95596.31
2022-10-01T05:32:39.589Z,95583.56
2022-10-01T05:35:08.502Z,95573.97
2022-10-01T05:37:36.097Z,95590.44
2022-10-01T05:40:03.353Z,95598.78
2022-10-01T05:42:30.435Z,95600.00
2022-10-01T05:44:57.734Z,95608.59
2022-10-01T05:47:27.589Z,95610.81
2022-10-01T05:49:54.634Z,95612.28
2022-10-01T05:52:21.683Z,95619.66
2022-10-01T05:54:48.671Z,95612.06
2022-10-01T05:57:15.697Z,95614.25
2022-10-01T05:59:44.578Z,95616.22
2022-10-01T06:02:11.686Z,95614.25
2022-10-01T06:04:41.200Z,95615.72
2022-10-01T06:07:08.963Z,95604.94
2022-10-01T06:09:35.954Z,95612.78
2022-10-01T06:12:05.774Z,95626.53
2022-10-01T06:14:32.768Z,95607.91
2022-10-01T06:17:00.076Z,95620.66
2022-10-01T06:19:26.991Z,95625.31
2022-10-01T06:21:54.310Z,95632.22
2022-10-01T06:24:21.261Z,95625.59
2022-10-01T06:26:48.914Z,95645.47
2022-10-01T06:29:16.194Z,95642.03
2022-10-01T06:31:43.373Z,95637.38
2022-10-01T06:34:10.349Z,95633.94
2022-10-01T06:36:37.525Z,95637.66
2022-10-01T06:39:04.686Z,95625.34
2022-10-01T06:41:31.953Z,95620.69
2022-10-01T06:43:59.329Z,95629.03
2022-10-01T06:46:26.476Z,95625.63
2022-10-01T06:48:53.564Z,95622.19
2022-10-01T06:51:43.971Z,95618.22
2022-10-01T06:54:11.109Z,95597.88
2022-10-01T06:56:38.153Z,95600.34
2022-10-01T06:59:05.333Z,95594.94
2022-10-01T07:01:33.196Z,95606.47
2022-10-01T07:04:00.769Z,95614.09
2022-10-01T07:06:28.219Z,95621.72
2022-10-01T07:08:55.716Z,95632.03
2022-10-01T07:11:22.956Z,95632.31
2022-10-01T07:13:54.405Z,95634.50
2022-10-01T07:16:22.126Z,95626.66
2022-10-01T07:18:49.215Z,95624.69
2022-10-01T07:21:16.295Z,95624.94
2022-10-01T07:23:43.480Z,95627.91
2022-10-01T07:26:10.654Z,95624.72
2022-10-01T07:28:37.595Z,95624.00
2022-10-01T07:31:12.724Z,95621.53
2022-10-01T07:33:40.493Z,95616.38
2022-10-01T07:36:10.999Z,95632.13
2022-10-01T07:38:38.240Z,95610.00
2022-10-01T07:41:05.756Z,95618.63
2022-10-01T07:43:34.847Z,95606.09
2022-10-01T07:46:03.707Z,95599.22
2022-10-01T07:48:31.286Z,95609.06
2022-10-01T07:50:58.534Z,95592.13
2022-10-01T07:53:26.195Z,95587.69
2022-10-01T07:55:54.642Z,95593.09
2022-10-01T07:58:25.392Z,95577.88
2022-10-01T08:00:58.480Z,95578.84
2022-10-01T08:03:26.030Z,95532.66
2022-10-01T08:05:54.909Z,95559.69
2022-10-01T08:08:22.394Z,95575.19
2022-10-01T08:10:50.932Z,95573.44
2022-10-01T08:13:18.648Z,95581.06
2022-10-01T08:15:50.677Z,95604.44
2022-10-01T08:18:17.965Z,95611.31
2022-10-01T08:20:45.643Z,95610.34
2022-10-01T08:23:15.700Z,95601.03
2022-10-01T08:25:44.728Z,95617.47
2022-10-01T08:28:13.044Z,95615.03
2022-10-01T08:30:42.377Z,95622.66
2022-10-01T08:33:14.405Z,95620.47
2022-10-01T08:35:43.896Z,95616.53
2022-10-01T08:38:12.591Z,95612.59
2022-10-01T08:40:49.436Z,95616.78
2022-10-01T08:43:39.215Z,95617.78
2022-10-01T08:46:13.499Z,95603.75
2022-10-01T08:49:06.687Z,95616.78
2022-10-01T08:51:54.374Z,95629.84
2022-10-01T08:54:38.009Z,95625.91
2022-10-01T08:57:12.355Z,95633.78
2022-10-01T08:59:47.456Z,95626.88
2022-10-01T09:02:27.124Z,95636.75
2022-10-01T09:05:01.628Z,95641.66
2022-10-01T09:07:29.315Z,95626.91
2022-10-01T09:10:21.546Z,95634.53
2022-10-01T09:13:04.694Z,95630.59
2022-10-01T09:15:45.604Z,95646.59
2022-10-01T09:18:20.014Z,95646.34
2022-10-01T09:20:55.094Z,95637.75
2022-10-01T09:23:30.656Z,95645.88
2022-10-01T09:25:59.878Z,95650.28
2022-10-01T09:28:32.272Z,95642.91
2022-10-01T09:31:11.710Z,95647.09
2022-10-01T09:33:43.252Z,95649.59
2022-10-01T09:36:33.726Z,95649.84
2022-10-01T09:39:17.436Z,95649.38
2022-10-01T09:41:46.562Z,95651.34
2022-10-01T09:44:22.612Z,95642.22
2022-10-01T09:46:50.112Z,95654.53
2022-10-01T09:49:43.970Z,95658.72
2022-10-01T09:52:18.564Z,95652.81
2022-10-01T09:55:18.418Z,95652.56
2022-10-01T09:57:52.859Z,95662.19
2022-10-01T10:00:23.527Z,95668.31
2022-10-01T10:02:54.334Z,95661.19
2022-10-01T10:05:25.175Z,95653.31
2022-10-01T10:08:00.208Z,95662.94
2022-10-01T10:10:36.131Z,95664.38
2022-10-01T10:13:26.518Z,95669.31
2022-10-01T10:16:00.069Z,95670.56
2022-10-01T10:18:36.598Z,95669.81
2022-10-01T10:21:11.011Z,95675.97
2022-10-01T10:24:06.477Z,95663.66
2022-10-01T10:26:39.544Z,95678.94
2022-10-01T10:29:09.562Z,95678.44
2022-10-01T10:31:42.055Z,95685.31
2022-10-01T10:34:18.015Z,95674.75
2022-10-01T10:36:46.966Z,95685.09
2022-10-01T10:39:38.206Z,95683.13
2022-10-01T10:42:06.772Z,95666.16
2022-10-01T10:44:39.901Z,95687.06
2022-10-01T10:47:11.947Z,95701.09
2022-10-01T10:49:45.185Z,95707.50
2022-10-01T10:52:30.009Z,95713.91
2022-10-01T10:54:59.626Z,95712.44
2022-10-01T10:57:32.521Z,95719.31
2022-10-01T11:00:18.074Z,95726.44
2022-10-01T11:02:57.066Z,95728.41
2022-10-01T11:05:27.642Z,95735.59
2022-10-01T11:07:58.709Z,95737.81
2022-10-01T11:10:43.772Z,95735.09
2022-10-01T11:14:05.458Z,95748.88
2022-10-01T11:16:51.933Z,95745.69
2022-10-01T11:19:43.292Z,95733.63
2022-10-01T11:22:13.296Z,95730.41
2022-10-01T11:25:03.666Z,95741.75
2022-10-01T11:27:37.305Z,95746.66
2022-10-01T11:30:27.622Z,95745.91
2022-10-01T11:33:11.898Z,95756.53
2022-10-01T11:36:07.607Z,95752.34
2022-10-01T11:38:58.804Z,95758.00
2022-10-01T11:41:45.362Z,95760.47
2022-10-01T11:44:15.607Z,95768.34
2022-10-01T11:47:24.395Z,95770.06
2022-10-01T11:49:57.613Z,95767.84
2022-10-01T11:52:33.296Z,95778.19
2022-10-01T11:55:40.188Z,95767.59
2022-10-01T11:58:49.346Z,95759.97
2022-10-01T12:01:40.591Z,95765.88
2022-10-01T12:04:33.612Z,95766.13
2022-10-01T12:07:22.216Z,95767.34
2022-10-01T12:09:55.490Z,95742.94
2022-10-01T12:12:32.297Z,95765.63
2022-10-01T12:15:27.053Z,95768.56
2022-10-01T12:18:13.346Z,95773.75
2022-10-01T12:20:48.864Z,95771.03
2022-10-01T12:23:25.081Z,95759.69
2022-10-01T12:26:39.851Z,95774.47
2022-10-01T12:29:12.910Z,95772.50
2022-10-01T12:32:30.979Z,95761.41
2022-10-01T12:35:42.574Z,95769.28
2022-10-01T12:38:09.722Z,95766.81
2022-10-01T12:40:40.998Z,95776.66
2022-10-01T12:43:16.528Z,95787.00
2022-10-01T12:45:48.004Z,95797.34
2022-10-01T12:48:26.363Z,95797.59
2022-10-01T12:51:32.742Z,95794.38
2022-10-01T12:54:18.808Z,95794.63
2022-10-01T12:56:48.177Z,95796.59
2022-10-01T12:59:27.839Z,95813.34
2022-10-01T13:01:57.542Z,95802.50
2022-10-01T13:05:02.705Z,95815.84
2022-10-01T13:07:48.678Z,95819.50
2022-10-01T13:10:34.129Z,95823.22
2022-10-01T13:13:08.292Z,95808.38
2022-10-01T13:15:47.311Z,95807.38
2022-10-01T13:18:36.258Z,95811.56
2022-10-01T13:21:18.737Z,95812.28
2022-10-01T13:23:48.725Z,95804.56
2022-10-01T13:26:25.892Z,95815.66
2022-10-01T13:29:04.324Z,95822.03
2022-10-01T13:31:37.877Z,95817.81
2022-10-01T13:34:31.966Z,95833.56
2022-10-01T13:37:10.631Z,95842.66
2022-10-01T13:39:42.224Z,95842.16
2022-10-01T13:42:27.593Z,95842.13
2022-10-01T13:45:07.680Z,95845.78
2022-10-01T13:47:40.053Z,95857.84
2022-10-01T13:50:20.629Z,95850.88
2022-10-01T13:52:47.871Z,95843.94
2022-10-01T13:55:29.984Z,95846.91
2022-10-01T13:58:21.625Z,95845.38
2022-10-01T14:00:54.475Z,95845.66
2022-10-01T14:03:58.322Z,95848.09
2022-10-01T14:06:39.692Z,95845.06
2022-10-01T14:09:31.495Z,95849.06
2022-10-01T14:12:23.009Z,95853.03
2022-10-01T14:15:17.200Z,95870.31
2022-10-01T14:17:46.560Z,95864.84
2022-10-01T14:20:20.727Z,95864.34
2022-10-01T14:23:09.641Z,95873.47
2022-10-01T14:25:53.786Z,95867.81
2022-10-01T14:28:27.066Z,95871.28
2022-10-01T14:31:03.636Z,95875.19
2022-10-01T14:33:40.469Z,95879.16
2022-10-01T14:36:11.457Z,95871.72
2022-10-01T14:38:38.785Z,95864.59
2022-10-01T14:41:06.224Z,95876.25
2022-10-01T14:43:33.617Z,95878.91
2022-10-01T14:46:16.844Z,95873.75
2022-10-01T14:48:44.427Z,95875.72
2022-10-01T14:51:29.505Z,95879.97
2022-10-01T14:54:00.025Z,95888.13
2022-10-01T14:56:28.396Z,95886.63
2022-10-01T14:59:03.753Z,95878.75
2022-10-01T15:01:32.021Z,95884.44
2022-10-01T15:03:59.290Z,95881.75
2022-10-01T15:06:30.249Z,95883.72
2022-10-01T15:09:14.469Z,95888.19
2022-10-01T15:11:44.705Z,95888.19
2022-10-01T15:14:21.055Z,95873.34
2022-10-01T15:16:49.386Z,95901.28
2022-10-01T15:19:20.983Z,95902.50
2022-10-01T15:21:53.778Z,95896.09
2022-10-01T15:24:26.278Z,95901.00
2022-10-01T15:26:55.950Z,95906.69
2022-10-01T15:29:23.675Z,95902.00
2022-10-01T15:31:53.415Z,95902.75
2022-10-01T15:34:24.188Z,95901.00
2022-10-01T15:36:52.490Z,95911.88
2022-10-01T15:39:32.098Z,95905.22
2022-10-01T15:42:02.008Z,95918.31
2022-10-01T15:44:47.204Z,95919.06
2022-10-01T15:47:20.157Z,95919.06
2022-10-01T15:50:08.591Z,95916.81
2022-10-01T15:52:50.924Z,95907.19
2022-10-01T15:55:58.180Z,95917.31
2022-10-01T15:58:30.509Z,95902.50
2022-10-01T16:01:00.903Z,95918.81
2022-10-01T16:03:32.085Z,95911.88
2022-10-01T16:06:02.606Z,95926.97
2022-10-01T16:08:39.866Z,95936.59
2022-10-01T16:11:36.903Z,95941.28
2022-10-01T16:14:28.358Z,95960.34
2022-10-01T16:17:19.915Z,95960.81
2022-10-01T16:19:53.208Z,95969.22
2022-10-01T16:22:31.991Z,95964.28
2022-10-01T16:25:01.812Z,95969.50
2022-10-01T16:27:35.813Z,95976.91
2022-10-01T16:30:12.788Z,95987.28
2022-10-01T16:32:40.027Z,95977.88
2022-10-01T16:35:21.313Z,95989.50
2022-10-01T16:37:50.442Z,95996.91
2022-10-01T16:40:21.085Z,95985.28
2022-10-01T16:42:52.490Z,95998.91
2022-10-01T16:45:25.741Z,96007.06
2022-10-01T16:47:55.696Z,96012.00
2022-10-01T16:50:23.839Z,96012.75
2022-10-01T16:52:55.803Z,96020.16
2022-10-01T16:55:25.660Z,96017.44
2022-10-01T16:57:57.307Z,96027.56
2022-10-01T17:00:26.920Z,96023.63
2022-10-01T17:02:55.543Z,96026.81
2022-10-01T17:05:25.404Z,96024.84
2022-10-01T17:07:53.690Z,96023.63
2022-10-01T17:10:23.636Z,96030.53
2022-10-01T17:12:51.274Z,96030.53
2022-10-01T17:15:23.353Z,96035.97
2022-10-01T17:17:50.667Z,96053.53
2022-10-01T17:20:17.986Z,96055.75
2022-10-01T17:22:45.317Z,96057.00
2022-10-01T17:25:19.098Z,96071.31
2022-10-01T17:27:47.026Z,96075.28
2022-10-01T17:30:15.408Z,96079.47
2022-10-01T17:32:45.065Z,96086.41
2022-10-01T17:35:13.697Z,96084.19
2022-10-01T17:37:42.355Z,96091.09
2022-10-01T17:40:10.645Z,96098.00
2022-10-01T17:42:38.257Z,96101.97
2022-10-01T17:45:08.564Z,96108.16
2022-10-01T17:47:36.460Z,96103.44
2022-10-01T17:50:04.156Z,96109.63
2022-10-01T17:52:34.525Z,96114.84
2022-10-01T17:55:01.758Z,96129.91
2022-10-01T17:57:28.985Z,96122.25
2022-10-01T17:59:56.635Z,96122.00
2022-10-01T18:02:41.016Z,96131.91
2022-10-01T18:05:12.538Z,96131.16
2022-10-01T18:07:40.796Z,96130.16
2022-10-01T18:10:11.181Z,96145.72
2022-10-01T18:12:38.523Z,96148.97
2022-10-01T18:15:06.862Z,96150.94
2022-10-01T18:17:36.600Z,96159.09
2022-10-01T18:20:06.745Z,96162.06
2022-10-01T18:22:35.929Z,96164.06
2022-10-01T18:25:04.546Z,96163.81
2022-10-01T18:27:34.188Z,96175.91
2022-10-01T18:30:05.038Z,96174.41
2022-10-01T18:32:37.753Z,96188.00
2022-10-01T18:35:29.088Z,96186.53
2022-10-01T18:38:14.877Z,96198.66
2022-10-01T18:40:43.838Z,96208.78
2022-10-01T18:43:19.988Z,96210.03
2022-10-01T18:45:56.607Z,96220.63
2022-10-01T18:48:58.452Z,96232.25
2022-10-01T18:51:25.698Z,96237.69
2022-10-01T18:54:12.385Z,96241.63
2022-10-01T18:56:57.776Z,96255.22
2022-10-01T18:59:42.581Z,96259.94
2022-10-01T19:02:48.101Z,96267.38
2022-10-01T19:06:01.425Z,96262.41
2022-10-01T19:08:29.252Z,96269.06
2022-10-01T19:11:14.587Z,96272.03
2022-10-01T19:14:22.075Z,96267.59
2022-10-01T19:17:10.212Z,96280.94
2022-10-01T19:19:44.641Z,96282.91
2022-10-01T19:22:33.676Z,96277.97
2022-10-01T19:25:06.926Z,96281.66
2022-10-01T19:28:02.044Z,96286.09
2022-10-01T19:30:39.295Z,96288.59
2022-10-01T19:33:12.101Z,96293.28
2022-10-01T19:35:42.787Z,96297.97
2022-10-01T19:38:27.888Z,96298.94
2022-10-01T19:41:07.581Z,96292.25
2022-10-01T19:43:43.355Z,96310.31
2022-10-01T19:46:29.414Z,96303.38
2022-10-01T19:49:04.566Z,96313.50
2022-10-01T19:51:42.574Z,96317.22
2022-10-01T19:54:15.850Z,96322.38
2022-10-01T19:56:45.887Z,96333.25
2022-10-01T19:59:15.894Z,96338.69
2022-10-01T20:01:54.402Z,96341.66
2022-10-01T20:04:52.005Z,96340.16
2022-10-01T20:07:35.696Z,96348.78
2022-10-01T20:10:18.602Z,96356.19
2022-10-01T20:13:19.588Z,96358.16
2022-10-01T20:15:52.843Z,96358.16
2022-10-01T20:18:57.206Z,96366.31
2022-10-01T20:21:50.355Z,96364.59
2022-10-01T20:24:29.066Z,96368.03
2022-10-01T20:27:21.089Z,96373.97
2022-10-01T20:30:05.437Z,96389.78
2022-10-01T20:32:43.654Z,96383.84
2022-10-01T20:35:22.851Z,96386.06
2022-10-01T20:38:07.196Z,96388.03
2022-10-01T20:40:49.821Z,96397.69
2022-10-01T20:43:46.264Z,96399.66
2022-10-01T20:46:32.980Z,96397.22
2022-10-01T20:49:11.436Z,96395.44
2022-10-01T20:51:53.955Z,96397.69
2022-10-01T20:54:27.429Z,96392.00
2022-10-01T20:57:05.963Z,96394.69
2022-10-01T20:59:39.129Z,96396.69
2022-10-01T21:02:32.692Z,96402.84
2022-10-01T21:05:11.925Z,96410.75
2022-10-01T21:07:56.653Z,96418.16
2022-10-01T21:10:42.653Z,96411.50
2022-10-01T21:13:15.485Z,96418.91
2022-10-01T21:15:57.833Z,96420.66
2022-10-01T21:18:49.964Z,96423.38
2022-10-01T21:21:41.429Z,96422.13
2022-10-01T21:24:26.221Z,96421.88
2022-10-01T21:27:11.965Z,96432.75
2022-10-01T21:29:57.955Z,96454.47
2022-10-01T21:32:42.888Z,96443.59
2022-10-01T21:35:10.265Z,96453.25
2022-10-01T21:37:43.179Z,96459.91
2022-10-01T21:40:36.846Z,96460.66
2022-10-01T21:43:23.411Z,96476.19
2022-10-01T21:46:13.289Z,96483.63
2022-10-01T21:49:11.075Z,96469.31
2022-10-01T21:51:53.615Z,96477.47
2022-10-01T21:54:41.861Z,96482.38
2022-10-01T21:57:41.026Z,96481.63
2022-10-01T22:00:22.437Z,96473.75
2022-10-01T22:03:31.584Z,96485.09
2022-10-01T22:06:10.192Z,96498.69
2022-10-01T22:08:52.273Z,96489.06
2022-10-01T22:11:23.475Z,96499.44
2022-10-01T22:13:58.581Z,96488.56
2022-10-01T22:16:55.031Z,96485.38
2022-10-01T22:19:46.156Z,96497.47
2022-10-01T22:22:18.739Z,96496.97
2022-10-01T22:24:52.834Z,96494.00
2022-10-01T22:27:21.359Z,96492.78
2022-10-01T22:30:13.148Z,96495.97
2022-10-01T22:32:51.920Z,96501.91
2022-10-01T22:35:24.915Z,96496.19
2022-10-01T22:38:07.648Z,96498.91
2022-10-01T22:40:42.463Z,96494.72
2022-10-01T22:43:11.819Z,96496.69
2022-10-01T22:45:54.789Z,96506.31
2022-10-01T22:48:46.396Z,96515.97
2022-10-01T22:51:31.453Z,96514.47
2022-10-01T22:54:21.767Z,96528.53
2022-10-01T22:57:04.173Z,96527.81
2022-10-01T22:59:50.521Z,96533.97
2022-10-01T23:02:49.925Z,96532.00
2022-10-01T23:05:41.416Z,96534.47
2022-10-01T23:08:45.536Z,96536.69
2022-10-01T23:11:18.650Z,96551.50
2022-10-01T23:14:10.174Z,96550.25
2022-10-01T23:17:08.503Z,96573.50
2022-10-01T23:19:54.736Z,96555.69
2022-10-01T23:22:21.805Z,96554.22
2022-10-01T23:25:07.115Z,96548.25
2022-10-01T23:28:08.384Z,96569.25
2022-10-01T23:31:09.864Z,96572.97
2022-10-01T23:33:55.028Z,96556.91
2022-10-01T23:36:45.560Z,96558.13
2022-10-01T23:39:44.494Z,96551.94
2022-10-01T23:42:20.454Z,96570.47
2022-10-01T23:45:13.831Z,96570.22
2022-10-01T23:48:09.827Z,96577.38
2022-10-01T23:51:15.642Z,96583.28
2022-10-01T23:53:57.876Z,96579.81
2022-10-01T23:56:50.804Z,96577.09
2022-10-01T23:59:42.938Z,96580.28
